Accueil
METAR-TAF:

METAR-TAF

Aéroports :

Meiringen, Suisse

latitude: 46-44-25N, longitude: 8-06-36E, altitude: 577 m

Observation

Le bulletin a été fait il y a 31 minutes, à 20:50 UTC
Vent 4 kt de nord-est, variant entre nord/nord-est et est
Température 4°C
Humidité 93%
Pression 1011 hPa
Visibilité 10 km ou plus
Nuages épars à une hauteur de 1600 ft
Ciel couvert à une hauteur de 2000 ft
pluie faible

METAR: LSMM 262050Z AUTO 05004KT 020V080 9999NDV -RA SCT016 OVC020 04/03 Q1011 RMK

Heure: 23:21 (21:21 UTC)


TAF: absent

Observations et prévisions météorologiques de plus de 4000 aéroports (messages METAR et TAF).

Les stations disponibles sont représentées par des disques jaunes et rouges sur la carte.

Passer la souris dessus pour voir le nom de la station.

Cliquer dessus pour voir les observations et prévisions météorologiques.

Pour changer de carte: cliquez sur les boutons verts avec une croix noire pour zoomer, sur le bouton vert avec un tiret pour effectuer un zoom arrière, ou sur les flèches vertes pour les cartes adjacentes.


METAR-TAF: